sensor_id;sensor_type;location;lat;lon;timestamp;P1;durP1;ratioP1;P2;durP2;ratioP2
22289;SDS011;11313;50.116;8.424;2023-11-19T00:58:23;1.58;;;1.10;;
22289;SDS011;11313;50.116;8.424;2023-11-19T01:01:12;1.60;;;1.25;;
22289;SDS011;11313;50.116;8.424;2023-11-19T01:03:40;2.35;;;1.25;;
22289;SDS011;11313;50.116;8.424;2023-11-19T01:06:08;1.40;;;1.10;;
22289;SDS011;11313;50.116;8.424;2023-11-19T01:08:33;1.70;;;1.17;;
22289;SDS011;11313;50.116;8.424;2023-11-19T01:11:01;1.88;;;1.17;;
22289;SDS011;11313;50.116;8.424;2023-11-19T01:13:32;1.92;;;1.20;;
22289;SDS011;11313;50.116;8.424;2023-11-19T01:15:57;1.60;;;1.20;;
22289;SDS011;11313;50.116;8.424;2023-11-19T01:18:23;2.47;;;1.20;;
22289;SDS011;11313;50.116;8.424;2023-11-19T01:20:49;1.50;;;1.20;;
22289;SDS011;11313;50.116;8.424;2023-11-19T01:23:17;2.28;;;1.33;;
22289;SDS011;11313;50.116;8.424;2023-11-19T01:25:48;1.65;;;1.00;;
22289;SDS011;11313;50.116;8.424;2023-11-19T01:30:54;1.75;;;1.17;;
22289;SDS011;11313;50.116;8.424;2023-11-19T01:33:19;1.73;;;1.08;;
22289;SDS011;11313;50.116;8.424;2023-11-19T01:35:48;1.65;;;1.17;;
22289;SDS011;11313;50.116;8.424;2023-11-19T01:38:26;1.60;;;1.20;;
22289;SDS011;11313;50.116;8.424;2023-11-19T01:48:05;1.13;;;1.00;;
22289;SDS011;11313;50.116;8.424;2023-11-19T03:01:03;1.27;;;0.95;;
22289;SDS011;11313;50.116;8.424;2023-11-19T03:11:43;1.10;;;0.75;;
22289;SDS011;11313;50.116;8.424;2023-11-19T03:14:14;1.63;;;0.90;;
22289;SDS011;11313;50.116;8.424;2023-11-19T03:16:40;1.42;;;0.80;;
22289;SDS011;11313;50.116;8.424;2023-11-19T03:19:09;0.90;;;0.80;;
22289;SDS011;11313;50.116;8.424;2023-11-19T03:21:40;1.63;;;0.73;;
22289;SDS011;11313;50.116;8.424;2023-11-19T03:24:17;1.35;;;0.70;;
22289;SDS011;11313;50.116;8.424;2023-11-19T03:26:54;0.93;;;0.77;;
22289;SDS011;11313;50.116;8.424;2023-11-19T03:54:06;1.30;;;0.82;;
22289;SDS011;11313;50.116;8.424;2023-11-19T03:56:41;1.02;;;0.93;;
22289;SDS011;11313;50.116;8.424;2023-11-19T03:59:07;1.17;;;0.88;;
22289;SDS011;11313;50.116;8.424;2023-11-19T04:01:45;0.70;;;0.70;;
22289;SDS011;11313;50.116;8.424;2023-11-19T04:04:14;1.20;;;0.90;;
22289;SDS011;11313;50.116;8.424;2023-11-19T04:06:39;1.60;;;0.90;;
22289;SDS011;11313;50.116;8.424;2023-11-19T04:09:05;1.67;;;0.70;;
22289;SDS011;11313;50.116;8.424;2023-11-19T04:11:40;0.95;;;0.70;;
22289;SDS011;11313;50.116;8.424;2023-11-19T04:14:17;0.43;;;0.40;;
22289;SDS011;11313;50.116;8.424;2023-11-19T04:17:06;2.42;;;0.77;;
22289;SDS011;11313;50.116;8.424;2023-11-19T04:27:49;0.77;;;0.60;;
22289;SDS011;11313;50.116;8.424;2023-11-19T04:30:19;0.82;;;0.50;;
22289;SDS011;11313;50.116;8.424;2023-11-19T04:32:45;0.70;;;0.70;;
22289;SDS011;11313;50.116;8.424;2023-11-19T04:35:16;0.88;;;0.80;;
22289;SDS011;11313;50.116;8.424;2023-11-19T04:37:44;0.60;;;0.60;;
22289;SDS011;11313;50.116;8.424;2023-11-19T04:40:12;0.63;;;0.60;;
22289;SDS011;11313;50.116;8.424;2023-11-19T04:42:40;0.65;;;0.60;;
22289;SDS011;11313;50.116;8.424;2023-11-19T04:45:19;0.80;;;0.70;;
22289;SDS011;11313;50.116;8.424;2023-11-19T04:47:46;1.15;;;0.65;;
22289;SDS011;11313;50.116;8.424;2023-11-19T04:50:18;0.70;;;0.60;;
22289;SDS011;11313;50.116;8.424;2023-11-19T04:52:46;1.42;;;0.50;;
22289;SDS011;11313;50.116;8.424;2023-11-19T04:55:19;1.15;;;0.73;;
22289;SDS011;11313;50.116;8.424;2023-11-19T04:57:45;0.98;;;0.77;;
22289;SDS011;11313;50.116;8.424;2023-11-19T05:00:11;0.68;;;0.60;;
22289;SDS011;11313;50.116;8.424;2023-11-19T05:02:37;0.70;;;0.70;;
22289;SDS011;11313;50.116;8.424;2023-11-19T05:05:10;0.50;;;0.50;;
22289;SDS011;11313;50.116;8.424;2023-11-19T08:16:05;3.35;;;1.00;;
22289;SDS011;11313;50.116;8.424;2023-11-19T08:18:40;3.90;;;0.93;;
22289;SDS011;11313;50.116;8.424;2023-11-19T08:21:09;2.33;;;0.73;;
22289;SDS011;11313;50.116;8.424;2023-11-19T08:23:37;4.75;;;0.90;;
22289;SDS011;11313;50.116;8.424;2023-11-19T08:26:03;2.03;;;0.70;;
22289;SDS011;11313;50.116;8.424;2023-11-19T08:28:29;1.98;;;1.02;;
22289;SDS011;11313;50.116;8.424;2023-11-19T08:31:05;2.30;;;0.90;;
22289;SDS011;11313;50.116;8.424;2023-11-19T08:33:51;3.08;;;0.63;;
22289;SDS011;11313;50.116;8.424;2023-11-19T08:36:37;1.15;;;0.70;;
22289;SDS011;11313;50.116;8.424;2023-11-19T08:39:18;2.42;;;0.80;;
22289;SDS011;11313;50.116;8.424;2023-11-19T08:42:05;1.60;;;0.70;;
22289;SDS011;11313;50.116;8.424;2023-11-19T08:44:50;3.47;;;0.50;;
22289;SDS011;11313;50.116;8.424;2023-11-19T08:47:26;1.58;;;0.60;;
22289;SDS011;11313;50.116;8.424;2023-11-19T08:50:02;1.70;;;0.70;;
22289;SDS011;11313;50.116;8.424;2023-11-19T08:53:09;3.90;;;1.00;;
22289;SDS011;11313;50.116;8.424;2023-11-19T13:27:45;3.92;;;1.20;;
22289;SDS011;11313;50.116;8.424;2023-11-19T13:30:11;5.15;;;1.23;;
22289;SDS011;11313;50.116;8.424;2023-11-19T13:32:37;2.22;;;0.95;;
22289;SDS011;11313;50.116;8.424;2023-11-19T13:35:04;4.75;;;1.50;;
22289;SDS011;11313;50.116;8.424;2023-11-19T13:37:30;4.80;;;1.20;;
22289;SDS011;11313;50.116;8.424;2023-11-19T13:39:56;4.40;;;1.10;;
22289;SDS011;11313;50.116;8.424;2023-11-19T13:42:22;3.88;;;1.35;;
22289;SDS011;11313;50.116;8.424;2023-11-19T13:44:48;3.20;;;1.20;;
22289;SDS011;11313;50.116;8.424;2023-11-19T13:47:14;3.67;;;1.38;;
22289;SDS011;11313;50.116;8.424;2023-11-19T13:49:39;5.13;;;1.27;;
22289;SDS011;11313;50.116;8.424;2023-11-19T13:52:05;6.20;;;1.45;;
22289;SDS011;11313;50.116;8.424;2023-11-19T13:54:31;4.18;;;1.33;;
22289;SDS011;11313;50.116;8.424;2023-11-19T13:56:56;3.50;;;1.08;;
22289;SDS011;11313;50.116;8.424;2023-11-19T13:59:25;4.53;;;1.20;;
22289;SDS011;11313;50.116;8.424;2023-11-19T14:01:52;4.35;;;1.27;;
22289;SDS011;11313;50.116;8.424;2023-11-19T14:04:17;3.15;;;1.38;;
22289;SDS011;11313;50.116;8.424;2023-11-19T14:06:44;2.55;;;1.00;;
22289;SDS011;11313;50.116;8.424;2023-11-19T14:09:10;4.22;;;1.23;;
22289;SDS011;11313;50.116;8.424;2023-11-19T14:11:36;3.28;;;1.10;;
22289;SDS011;11313;50.116;8.424;2023-11-19T14:14:01;3.67;;;1.38;;
22289;SDS011;11313;50.116;8.424;2023-11-19T14:16:27;3.30;;;1.10;;
22289;SDS011;11313;50.116;8.424;2023-11-19T14:18:52;6.10;;;1.30;;
22289;SDS011;11313;50.116;8.424;2023-11-19T14:21:18;3.40;;;1.20;;
22289;SDS011;11313;50.116;8.424;2023-11-19T14:23:43;4.88;;;1.25;;
22289;SDS011;11313;50.116;8.424;2023-11-19T14:26:09;4.13;;;1.25;;
22289;SDS011;11313;50.116;8.424;2023-11-19T14:28:35;5.75;;;1.42;;
22289;SDS011;11313;50.116;8.424;2023-11-19T14:31:00;4.80;;;1.45;;
22289;SDS011;11313;50.116;8.424;2023-11-19T14:33:26;4.72;;;1.20;;
22289;SDS011;11313;50.116;8.424;2023-11-19T14:35:51;3.97;;;1.45;;
22289;SDS011;11313;50.116;8.424;2023-11-19T14:38:17;5.05;;;1.10;;
22289;SDS011;11313;50.116;8.424;2023-11-19T14:40:42;6.68;;;1.40;;
22289;SDS011;11313;50.116;8.424;2023-11-19T14:43:08;6.30;;;1.50;;
22289;SDS011;11313;50.116;8.424;2023-11-19T14:45:35;8.05;;;1.20;;
22289;SDS011;11313;50.116;8.424;2023-11-19T14:48:01;5.60;;;1.40;;
22289;SDS011;11313;50.116;8.424;2023-11-19T14:50:26;4.72;;;1.25;;
22289;SDS011;11313;50.116;8.424;2023-11-19T14:52:52;9.18;;;1.50;;
22289;SDS011;11313;50.116;8.424;2023-11-19T14:55:18;6.93;;;1.50;;
22289;SDS011;11313;50.116;8.424;2023-11-19T14:57:44;4.25;;;1.38;;
22289;SDS011;11313;50.116;8.424;2023-11-19T15:00:10;6.18;;;1.52;;
22289;SDS011;11313;50.116;8.424;2023-11-19T15:02:39;4.63;;;1.38;;
22289;SDS011;11313;50.116;8.424;2023-11-19T15:05:06;4.57;;;1.48;;
22289;SDS011;11313;50.116;8.424;2023-11-19T15:07:34;7.50;;;1.70;;
22289;SDS011;11313;50.116;8.424;2023-11-19T15:10:01;7.30;;;1.40;;
22289;SDS011;11313;50.116;8.424;2023-11-19T15:12:27;7.85;;;1.70;;
22289;SDS011;11313;50.116;8.424;2023-11-19T15:14:53;4.95;;;1.50;;
22289;SDS011;11313;50.116;8.424;2023-11-19T15:17:19;6.18;;;1.40;;
22289;SDS011;11313;50.116;8.424;2023-11-19T15:19:44;4.22;;;1.65;;
22289;SDS011;11313;50.116;8.424;2023-11-19T15:22:12;7.90;;;1.42;;
22289;SDS011;11313;50.116;8.424;2023-11-19T15:24:38;4.35;;;1.10;;
22289;SDS011;11313;50.116;8.424;2023-11-19T15:27:04;5.00;;;1.60;;
22289;SDS011;11313;50.116;8.424;2023-11-19T15:29:30;5.35;;;1.60;;
22289;SDS011;11313;50.116;8.424;2023-11-19T15:31:58;4.38;;;1.52;;
22289;SDS011;11313;50.116;8.424;2023-11-19T15:34:23;5.35;;;1.33;;
22289;SDS011;11313;50.116;8.424;2023-11-19T15:36:50;4.30;;;1.60;;
22289;SDS011;11313;50.116;8.424;2023-11-19T15:39:16;4.05;;;1.63;;
22289;SDS011;11313;50.116;8.424;2023-11-19T15:41:41;4.43;;;1.33;;
22289;SDS011;11313;50.116;8.424;2023-11-19T15:44:07;5.72;;;1.63;;
22289;SDS011;11313;50.116;8.424;2023-11-19T15:46:32;5.47;;;1.27;;
22289;SDS011;11313;50.116;8.424;2023-11-19T15:48:58;4.85;;;1.70;;
22289;SDS011;11313;50.116;8.424;2023-11-19T15:51:24;7.82;;;1.73;;
22289;SDS011;11313;50.116;8.424;2023-11-19T15:53:50;4.72;;;1.30;;
22289;SDS011;11313;50.116;8.424;2023-11-19T15:56:15;4.88;;;1.45;;
22289;SDS011;11313;50.116;8.424;2023-11-19T15:58:41;4.82;;;1.40;;
22289;SDS011;11313;50.116;8.424;2023-11-19T16:01:06;5.22;;;1.60;;
22289;SDS011;11313;50.116;8.424;2023-11-19T16:03:35;4.07;;;1.42;;
22289;SDS011;11313;50.116;8.424;2023-11-19T16:06:01;3.63;;;1.30;;
22289;SDS011;11313;50.116;8.424;2023-11-19T16:08:28;3.75;;;1.45;;
22289;SDS011;11313;50.116;8.424;2023-11-19T16:10:53;4.72;;;1.65;;
22289;SDS011;11313;50.116;8.424;2023-11-19T16:13:18;4.95;;;1.38;;
22289;SDS011;11313;50.116;8.424;2023-11-19T16:15:44;10.57;;;1.60;;
22289;SDS011;11313;50.116;8.424;2023-11-19T16:18:09;3.58;;;1.30;;
22289;SDS011;11313;50.116;8.424;2023-11-19T16:20:38;3.30;;;1.50;;
22289;SDS011;11313;50.116;8.424;2023-11-19T16:23:04;4.32;;;1.33;;
22289;SDS011;11313;50.116;8.424;2023-11-19T16:25:29;6.43;;;1.48;;
22289;SDS011;11313;50.116;8.424;2023-11-19T16:27:55;7.43;;;1.65;;
22289;SDS011;11313;50.116;8.424;2023-11-19T16:30:21;3.78;;;1.48;;
22289;SDS011;11313;50.116;8.424;2023-11-19T16:32:53;4.80;;;1.38;;
22289;SDS011;11313;50.116;8.424;2023-11-19T16:35:23;3.17;;;1.40;;
22289;SDS011;11313;50.116;8.424;2023-11-19T16:37:49;5.03;;;1.52;;
22289;SDS011;11313;50.116;8.424;2023-11-19T16:40:14;4.07;;;1.33;;
22289;SDS011;11313;50.116;8.424;2023-11-19T16:42:40;7.57;;;2.35;;
22289;SDS011;11313;50.116;8.424;2023-11-19T16:45:06;6.38;;;1.77;;
22289;SDS011;11313;50.116;8.424;2023-11-19T16:47:34;9.40;;;2.55;;
22289;SDS011;11313;50.116;8.424;2023-11-19T16:50:00;7.65;;;2.10;;
22289;SDS011;11313;50.116;8.424;2023-11-19T16:52:25;7.18;;;2.00;;
22289;SDS011;11313;50.116;8.424;2023-11-19T16:54:54;10.13;;;2.00;;
22289;SDS011;11313;50.116;8.424;2023-11-19T16:57:20;10.85;;;2.30;;
22289;SDS011;11313;50.116;8.424;2023-11-19T16:59:47;12.05;;;2.42;;
22289;SDS011;11313;50.116;8.424;2023-11-19T17:02:15;13.88;;;2.63;;
22289;SDS011;11313;50.116;8.424;2023-11-19T17:04:41;16.13;;;3.20;;
22289;SDS011;11313;50.116;8.424;2023-11-19T17:07:07;10.73;;;2.33;;
22289;SDS011;11313;50.116;8.424;2023-11-19T17:09:33;9.20;;;2.50;;
22289;SDS011;11313;50.116;8.424;2023-11-19T17:11:58;11.77;;;2.35;;
22289;SDS011;11313;50.116;8.424;2023-11-19T17:14:24;11.57;;;3.38;;
22289;SDS011;11313;50.116;8.424;2023-11-19T17:16:49;8.30;;;2.80;;
22289;SDS011;11313;50.116;8.424;2023-11-19T17:19:15;13.90;;;2.92;;
22289;SDS011;11313;50.116;8.424;2023-11-19T17:21:40;13.57;;;3.10;;
22289;SDS011;11313;50.116;8.424;2023-11-19T17:24:06;15.75;;;4.10;;
22289;SDS011;11313;50.116;8.424;2023-11-19T17:26:32;16.73;;;3.35;;
22289;SDS011;11313;50.116;8.424;2023-11-19T17:28:58;14.77;;;3.45;;
22289;SDS011;11313;50.116;8.424;2023-11-19T17:31:24;14.43;;;3.83;;
22289;SDS011;11313;50.116;8.424;2023-11-19T17:33:49;20.42;;;4.68;;
22289;SDS011;11313;50.116;8.424;2023-11-19T17:36:14;17.63;;;5.07;;
22289;SDS011;11313;50.116;8.424;2023-11-19T17:38:40;15.95;;;4.70;;
22289;SDS011;11313;50.116;8.424;2023-11-19T17:41:06;18.38;;;5.20;;
22289;SDS011;11313;50.116;8.424;2023-11-19T17:43:32;16.75;;;5.72;;
22289;SDS011;11313;50.116;8.424;2023-11-19T17:45:57;15.60;;;5.93;;
22289;SDS011;11313;50.116;8.424;2023-11-19T17:48:26;19.15;;;6.32;;
22289;SDS011;11313;50.116;8.424;2023-11-19T17:50:51;16.88;;;5.57;;
22289;SDS011;11313;50.116;8.424;2023-11-19T17:53:21;17.48;;;5.80;;
22289;SDS011;11313;50.116;8.424;2023-11-19T17:55:46;18.15;;;6.82;;
22289;SDS011;11313;50.116;8.424;2023-11-19T17:58:12;22.00;;;6.75;;
22289;SDS011;11313;50.116;8.424;2023-11-19T18:00:37;17.75;;;6.72;;
22289;SDS011;11313;50.116;8.424;2023-11-19T18:03:03;17.85;;;6.88;;
22289;SDS011;11313;50.116;8.424;2023-11-19T18:05:29;20.45;;;7.20;;
22289;SDS011;11313;50.116;8.424;2023-11-19T18:07:55;21.98;;;7.22;;
22289;SDS011;11313;50.116;8.424;2023-11-19T18:10:21;20.67;;;7.10;;
22289;SDS011;11313;50.116;8.424;2023-11-19T18:12:47;18.83;;;7.18;;
22289;SDS011;11313;50.116;8.424;2023-11-19T18:15:12;20.15;;;7.18;;
22289;SDS011;11313;50.116;8.424;2023-11-19T18:17:38;18.88;;;7.00;;
22289;SDS011;11313;50.116;8.424;2023-11-19T18:20:10;17.50;;;7.05;;
22289;SDS011;11313;50.116;8.424;2023-11-19T18:22:39;20.50;;;7.15;;
22289;SDS011;11313;50.116;8.424;2023-11-19T18:25:06;16.77;;;7.20;;
22289;SDS011;11313;50.116;8.424;2023-11-19T18:27:35;19.40;;;7.05;;
22289;SDS011;11313;50.116;8.424;2023-11-19T18:30:01;24.67;;;7.90;;
22289;SDS011;11313;50.116;8.424;2023-11-19T18:32:26;21.25;;;7.35;;
22289;SDS011;11313;50.116;8.424;2023-11-19T18:34:52;17.25;;;7.25;;
22289;SDS011;11313;50.116;8.424;2023-11-19T18:37:17;20.27;;;7.65;;
22289;SDS011;11313;50.116;8.424;2023-11-19T18:39:43;20.67;;;7.53;;
22289;SDS011;11313;50.116;8.424;2023-11-19T18:42:08;16.88;;;7.20;;
22289;SDS011;11313;50.116;8.424;2023-11-19T18:44:34;15.15;;;7.40;;
22289;SDS011;11313;50.116;8.424;2023-11-19T18:46:59;19.60;;;6.90;;
22289;SDS011;11313;50.116;8.424;2023-11-19T18:49:25;22.65;;;7.13;;
22289;SDS011;11313;50.116;8.424;2023-11-19T18:51:51;21.10;;;6.90;;
22289;SDS011;11313;50.116;8.424;2023-11-19T18:54:17;20.13;;;8.00;;
22289;SDS011;11313;50.116;8.424;2023-11-19T18:56:45;21.00;;;7.95;;
22289;SDS011;11313;50.116;8.424;2023-11-19T18:59:11;16.92;;;6.55;;
22289;SDS011;11313;50.116;8.424;2023-11-19T19:01:38;17.48;;;7.28;;
22289;SDS011;11313;50.116;8.424;2023-11-19T19:04:07;14.38;;;7.53;;
22289;SDS011;11313;50.116;8.424;2023-11-19T19:06:34;12.38;;;6.55;;
22289;SDS011;11313;50.116;8.424;2023-11-19T19:09:01;18.63;;;6.78;;
22289;SDS011;11313;50.116;8.424;2023-11-19T19:11:26;22.35;;;7.53;;
22289;SDS011;11313;50.116;8.424;2023-11-19T19:13:52;18.67;;;6.70;;
22289;SDS011;11313;50.116;8.424;2023-11-19T19:16:17;19.67;;;7.50;;
22289;SDS011;11313;50.116;8.424;2023-11-19T19:18:43;18.92;;;6.57;;
22289;SDS011;11313;50.116;8.424;2023-11-19T19:21:09;16.08;;;6.97;;
22289;SDS011;11313;50.116;8.424;2023-11-19T19:23:36;19.65;;;7.03;;
22289;SDS011;11313;50.116;8.424;2023-11-19T19:26:01;17.80;;;7.53;;
22289;SDS011;11313;50.116;8.424;2023-11-19T19:28:30;16.27;;;6.78;;
22289;SDS011;11313;50.116;8.424;2023-11-19T19:31:05;16.25;;;6.60;;
22289;SDS011;11313;50.116;8.424;2023-11-19T19:33:44;16.63;;;6.95;;
22289;SDS011;11313;50.116;8.424;2023-11-19T19:36:23;15.50;;;7.10;;
22289;SDS011;11313;50.116;8.424;2023-11-19T19:39:12;14.90;;;6.97;;
22289;SDS011;11313;50.116;8.424;2023-11-19T19:41:41;15.20;;;6.70;;
22289;SDS011;11313;50.116;8.424;2023-11-19T19:44:11;16.52;;;6.53;;
22289;SDS011;11313;50.116;8.424;2023-11-19T19:46:44;16.98;;;6.57;;
22289;SDS011;11313;50.116;8.424;2023-11-19T19:49:15;13.93;;;6.30;;
22289;SDS011;11313;50.116;8.424;2023-11-19T19:51:43;15.88;;;7.00;;
22289;SDS011;11313;50.116;8.424;2023-11-19T19:54:09;12.60;;;6.22;;
22289;SDS011;11313;50.116;8.424;2023-11-19T19:56:35;14.10;;;6.22;;
22289;SDS011;11313;50.116;8.424;2023-11-19T19:59:04;13.05;;;6.20;;
22289;SDS011;11313;50.116;8.424;2023-11-19T20:01:29;13.68;;;6.32;;
22289;SDS011;11313;50.116;8.424;2023-11-19T20:03:56;14.32;;;6.07;;
22289;SDS011;11313;50.116;8.424;2023-11-19T20:06:24;13.85;;;6.25;;
22289;SDS011;11313;50.116;8.424;2023-11-19T20:08:51;13.98;;;6.40;;
22289;SDS011;11313;50.116;8.424;2023-11-19T20:11:17;13.75;;;5.95;;
22289;SDS011;11313;50.116;8.424;2023-11-19T20:13:43;13.50;;;6.20;;
22289;SDS011;11313;50.116;8.424;2023-11-19T20:16:09;10.68;;;5.75;;
22289;SDS011;11313;50.116;8.424;2023-11-19T20:18:35;17.67;;;6.40;;
22289;SDS011;11313;50.116;8.424;2023-11-19T20:21:01;11.27;;;6.10;;
22289;SDS011;11313;50.116;8.424;2023-11-19T20:23:29;10.60;;;5.88;;
22289;SDS011;11313;50.116;8.424;2023-11-19T20:25:54;13.93;;;5.97;;
22289;SDS011;11313;50.116;8.424;2023-11-19T20:28:23;13.88;;;6.90;;
22289;SDS011;11313;50.116;8.424;2023-11-19T20:30:49;13.27;;;6.05;;
22289;SDS011;11313;50.116;8.424;2023-11-19T20:33:18;13.25;;;5.40;;
22289;SDS011;11313;50.116;8.424;2023-11-19T20:35:46;14.82;;;5.75;;
22289;SDS011;11313;50.116;8.424;2023-11-19T20:38:12;12.60;;;5.97;;
22289;SDS011;11313;50.116;8.424;2023-11-19T20:40:38;13.45;;;5.30;;
22289;SDS011;11313;50.116;8.424;2023-11-19T20:43:04;11.32;;;5.70;;
22289;SDS011;11313;50.116;8.424;2023-11-19T20:45:29;10.02;;;5.38;;
22289;SDS011;11313;50.116;8.424;2023-11-19T20:47:58;10.30;;;5.35;;
22289;SDS011;11313;50.116;8.424;2023-11-19T20:50:23;10.25;;;5.10;;
22289;SDS011;11313;50.116;8.424;2023-11-19T20:52:51;8.65;;;5.00;;
22289;SDS011;11313;50.116;8.424;2023-11-19T20:55:18;8.90;;;4.90;;
22289;SDS011;11313;50.116;8.424;2023-11-19T20:57:47;8.68;;;4.93;;
22289;SDS011;11313;50.116;8.424;2023-11-19T21:00:22;10.55;;;4.90;;
22289;SDS011;11313;50.116;8.424;2023-11-19T21:02:50;9.63;;;5.10;;
22289;SDS011;11313;50.116;8.424;2023-11-19T21:05:15;7.80;;;4.55;;
22289;SDS011;11313;50.116;8.424;2023-11-19T21:07:42;9.40;;;5.50;;
22289;SDS011;11313;50.116;8.424;2023-11-19T21:10:13;8.32;;;4.88;;
22289;SDS011;11313;50.116;8.424;2023-11-19T21:12:43;9.20;;;5.00;;
22289;SDS011;11313;50.116;8.424;2023-11-19T21:15:08;8.27;;;4.32;;
22289;SDS011;11313;50.116;8.424;2023-11-19T21:17:34;7.68;;;4.32;;
22289;SDS011;11313;50.116;8.424;2023-11-19T21:20:00;10.85;;;4.55;;
22289;SDS011;11313;50.116;8.424;2023-11-19T21:22:26;11.25;;;4.90;;
22289;SDS011;11313;50.116;8.424;2023-11-19T21:24:51;8.40;;;3.97;;
22289;SDS011;11313;50.116;8.424;2023-11-19T21:27:17;6.88;;;4.32;;
22289;SDS011;11313;50.116;8.424;2023-11-19T21:29:43;9.05;;;4.50;;
22289;SDS011;11313;50.116;8.424;2023-11-19T21:32:12;7.43;;;4.20;;
22289;SDS011;11313;50.116;8.424;2023-11-19T21:34:38;7.85;;;3.78;;
22289;SDS011;11313;50.116;8.424;2023-11-19T21:37:05;8.82;;;3.85;;
22289;SDS011;11313;50.116;8.424;2023-11-19T21:39:31;7.60;;;4.25;;
22289;SDS011;11313;50.116;8.424;2023-11-19T21:41:57;7.47;;;3.85;;
22289;SDS011;11313;50.116;8.424;2023-11-19T21:44:22;7.38;;;3.63;;
22289;SDS011;11313;50.116;8.424;2023-11-19T21:46:48;7.35;;;4.10;;
22289;SDS011;11313;50.116;8.424;2023-11-19T21:49:13;6.50;;;3.70;;
22289;SDS011;11313;50.116;8.424;2023-11-19T21:51:39;6.30;;;3.67;;
22289;SDS011;11313;50.116;8.424;2023-11-19T21:54:05;6.00;;;3.67;;
22289;SDS011;11313;50.116;8.424;2023-11-19T21:56:31;6.22;;;3.63;;
22289;SDS011;11313;50.116;8.424;2023-11-19T21:58:57;6.55;;;3.97;;
22289;SDS011;11313;50.116;8.424;2023-11-19T22:01:23;6.15;;;3.50;;
22289;SDS011;11313;50.116;8.424;2023-11-19T22:03:49;7.13;;;3.60;;
22289;SDS011;11313;50.116;8.424;2023-11-19T22:06:17;8.00;;;3.90;;
22289;SDS011;11313;50.116;8.424;2023-11-19T22:08:43;8.68;;;3.92;;
22289;SDS011;11313;50.116;8.424;2023-11-19T22:11:09;5.10;;;3.10;;
22289;SDS011;11313;50.116;8.424;2023-11-19T22:13:36;5.88;;;3.45;;
22289;SDS011;11313;50.116;8.424;2023-11-19T22:16:12;5.57;;;3.28;;
22289;SDS011;11313;50.116;8.424;2023-11-19T22:18:37;5.22;;;3.20;;
22289;SDS011;11313;50.116;8.424;2023-11-19T22:21:03;6.70;;;3.50;;
22289;SDS011;11313;50.116;8.424;2023-11-19T22:23:28;5.68;;;3.13;;
22289;SDS011;11313;50.116;8.424;2023-11-19T22:25:54;7.47;;;3.35;;
22289;SDS011;11313;50.116;8.424;2023-11-19T22:28:19;5.10;;;3.20;;
22289;SDS011;11313;50.116;8.424;2023-11-19T22:30:45;6.05;;;3.50;;
22289;SDS011;11313;50.116;8.424;2023-11-19T22:33:20;7.13;;;3.65;;
22289;SDS011;11313;50.116;8.424;2023-11-19T22:35:46;5.60;;;3.10;;
22289;SDS011;11313;50.116;8.424;2023-11-19T22:38:12;4.68;;;3.33;;
22289;SDS011;11313;50.116;8.424;2023-11-19T22:40:38;5.60;;;3.08;;
22289;SDS011;11313;50.116;8.424;2023-11-19T22:43:04;4.93;;;2.95;;
22289;SDS011;11313;50.116;8.424;2023-11-19T22:45:33;5.07;;;3.30;;
22289;SDS011;11313;50.116;8.424;2023-11-19T22:48:02;6.57;;;3.05;;
22289;SDS011;11313;50.116;8.424;2023-11-19T22:50:28;6.13;;;3.33;;
22289;SDS011;11313;50.116;8.424;2023-11-19T22:52:57;6.55;;;3.03;;
22289;SDS011;11313;50.116;8.424;2023-11-19T22:55:25;5.82;;;2.83;;
22289;SDS011;11313;50.116;8.424;2023-11-19T22:57:51;5.28;;;3.05;;
22289;SDS011;11313;50.116;8.424;2023-11-19T23:00:17;5.32;;;3.00;;
22289;SDS011;11313;50.116;8.424;2023-11-19T23:02:53;4.82;;;2.65;;
22289;SDS011;11313;50.116;8.424;2023-11-19T23:05:24;4.88;;;2.90;;
22289;SDS011;11313;50.116;8.424;2023-11-19T23:10:20;5.20;;;3.00;;
22289;SDS011;11313;50.116;8.424;2023-11-19T23:12:50;5.80;;;3.00;;
22289;SDS011;11313;50.116;8.424;2023-11-19T23:15:16;5.68;;;2.63;;
22289;SDS011;11313;50.116;8.424;2023-11-19T23:17:42;6.22;;;2.85;;
22289;SDS011;11313;50.116;8.424;2023-11-19T23:20:11;3.88;;;2.60;;
22289;SDS011;11313;50.116;8.424;2023-11-19T23:22:41;3.83;;;2.70;;
22289;SDS011;11313;50.116;8.424;2023-11-19T23:25:08;5.50;;;2.55;;
22289;SDS011;11313;50.116;8.424;2023-11-19T23:27:35;3.67;;;2.80;;
22289;SDS011;11313;50.116;8.424;2023-11-19T23:30:02;4.70;;;3.08;;
22289;SDS011;11313;50.116;8.424;2023-11-19T23:32:29;4.60;;;2.40;;
22289;SDS011;11313;50.116;8.424;2023-11-19T23:34:56;4.15;;;2.58;;
22289;SDS011;11313;50.116;8.424;2023-11-19T23:37:22;4.13;;;2.60;;
22289;SDS011;11313;50.116;8.424;2023-11-19T23:39:47;4.22;;;2.65;;
22289;SDS011;11313;50.116;8.424;2023-11-19T23:42:13;7.22;;;2.78;;
22289;SDS011;11313;50.116;8.424;2023-11-19T23:44:41;4.18;;;2.65;;
22289;SDS011;11313;50.116;8.424;2023-11-19T23:47:07;7.50;;;2.83;;
22289;SDS011;11313;50.116;8.424;2023-11-19T23:49:33;4.38;;;2.72;;
22289;SDS011;11313;50.116;8.424;2023-11-19T23:51:58;3.88;;;2.67;;
22289;SDS011;11313;50.116;8.424;2023-11-19T23:54:27;6.95;;;2.85;;
22289;SDS011;11313;50.116;8.424;2023-11-19T23:56:53;5.28;;;2.50;;
22289;SDS011;11313;50.116;8.424;2023-11-19T23:59:18;5.10;;;2.53;;
